TimeEST,TemperatureF,Dew PointF,Humidity,Sea Level PressureIn,VisibilityMPH,Wind Direction,Wind SpeedMPH,Gust SpeedMPH,PrecipitationIn,Events,Conditions,WindDirDegrees,DateUTC
12:11 AM,21.2,17.6,86,30.21,7.0,SW,8.1,-,N/A,,Clear,220,2012-12-31 05:11:00
12:31 AM,21.2,17.6,86,30.19,7.0,SW,8.1,-,N/A,,Clear,220,2012-12-31 05:31:00
12:52 AM,24.8,19.4,80,30.18,7.0,SW,9.2,-,N/A,,Clear,230,2012-12-31 05:52:00
1:12 AM,24.8,19.4,80,30.16,10.0,SW,13.8,-,N/A,,Clear,230,2012-12-31 06:12:00
1:32 AM,24.8,19.4,80,30.15,10.0,SW,15.0,19.6,N/A,,Scattered Clouds,230,2012-12-31 06:32:00
1:52 AM,24.8,19.4,80,30.15,10.0,SW,13.8,21.9,N/A,,Clear,230,2012-12-31 06:52:00
2:12 AM,26.6,19.4,74,30.14,10.0,SW,10.4,-,N/A,,Clear,230,2012-12-31 07:12:00
2:32 AM,26.6,21.2,80,30.15,10.0,SW,8.1,-,N/A,,Clear,230,2012-12-31 07:32:00
2:52 AM,26.6,21.2,80,30.13,10.0,SW,10.4,-,N/A,,Clear,220,2012-12-31 07:52:00
3:12 AM,24.8,21.2,86,30.13,10.0,South,3.5,-,N/A,,Clear,170,2012-12-31 08:12:00
3:32 AM,24.8,19.4,80,30.11,10.0,South,6.9,-,N/A,,Clear,180,2012-12-31 08:32:00
3:52 AM,24.8,19.4,80,30.10,10.0,South,8.1,-,N/A,,Clear,190,2012-12-31 08:52:00
4:13 AM,26.6,19.4,74,30.10,10.0,SSW,6.9,-,N/A,,Clear,200,2012-12-31 09:13:00
4:33 AM,26.6,21.2,80,30.09,10.0,SSW,8.1,-,N/A,,Clear,210,2012-12-31 09:33:00
4:53 AM,28.4,21.2,74,30.08,10.0,SSW,6.9,-,N/A,,Clear,210,2012-12-31 09:53:00
5:13 AM,28.4,21.2,74,30.06,10.0,SSW,10.4,-,N/A,,Clear,210,2012-12-31 10:13:00
5:33 AM,28.4,21.2,74,30.06,10.0,SW,9.2,-,N/A,,Clear,220,2012-12-31 10:33:00
5:53 AM,28.4,21.2,74,30.05,10.0,SW,10.4,20.7,N/A,,Clear,220,2012-12-31 10:53:00
6:13 AM,28.4,21.2,74,30.06,10.0,SW,16.1,20.7,N/A,,Clear,220,2012-12-31 11:13:00
6:33 AM,28.4,23.0,80,30.06,10.0,SW,16.1,21.9,N/A,,Clear,230,2012-12-31 11:33:00
6:53 AM,28.4,23.0,80,30.04,10.0,SW,17.3,23.0,N/A,,Clear,220,2012-12-31 11:53:00
7:14 AM,28.4,24.8,86,30.05,10.0,SW,17.3,23.0,N/A,,Clear,230,2012-12-31 12:14:00
7:34 AM,28.4,24.8,86,30.04,10.0,SW,16.1,23.0,N/A,,Clear,230,2012-12-31 12:34:00
7:54 AM,28.4,24.8,86,30.03,10.0,SW,16.1,20.7,N/A,,Clear,230,2012-12-31 12:54:00
8:14 AM,30.2,24.8,80,30.03,10.0,SW,16.1,20.7,N/A,,Clear,220,2012-12-31 13:14:00
8:34 AM,30.2,24.8,80,30.02,10.0,SW,17.3,-,N/A,,Clear,230,2012-12-31 13:34:00
8:54 AM,30.2,24.8,80,30.02,10.0,SW,17.3,23.0,N/A,,Clear,230,2012-12-31 13:54:00
9:14 AM,30.2,24.8,80,30.01,10.0,SW,13.8,24.2,N/A,,Clear,230,2012-12-31 14:14:00
9:34 AM,30.2,24.8,80,30.02,10.0,SW,16.1,-,N/A,,Clear,230,2012-12-31 14:34:00
9:54 AM,30.2,24.8,80,30.01,10.0,SW,18.4,-,N/A,,Clear,230,2012-12-31 14:54:00
10:14 AM,32.0,24.8,75,30.02,10.0,SW,16.1,24.2,N/A,,Clear,230,2012-12-31 15:14:00
10:35 AM,32.0,24.8,75,30.02,10.0,SW,15.0,25.3,N/A,,Clear,220,2012-12-31 15:35:00
10:55 AM,32.0,24.8,75,30.02,10.0,SW,13.8,21.9,N/A,,Clear,230,2012-12-31 15:55:00
11:15 AM,33.8,24.8,70,30.01,10.0,SW,16.1,24.2,N/A,,Clear,220,2012-12-31 16:15:00
11:35 AM,33.8,24.8,70,30.00,10.0,SW,17.3,20.7,N/A,,Clear,220,2012-12-31 16:35:00
11:55 AM,33.8,26.6,75,29.99,10.0,SW,15.0,-,N/A,,Clear,230,2012-12-31 16:55:00
12:15 PM,33.8,26.6,75,29.99,10.0,SW,16.1,23.0,N/A,,Clear,230,2012-12-31 17:15:00
12:35 PM,35.6,26.6,70,29.97,10.0,WSW,18.4,21.9,N/A,,Clear,240,2012-12-31 17:35:00
12:55 PM,35.6,26.6,70,29.96,10.0,SW,16.1,21.9,N/A,,Clear,230,2012-12-31 17:55:00
1:15 PM,33.8,26.6,75,29.95,10.0,SW,18.4,23.0,N/A,,Clear,230,2012-12-31 18:15:00
1:35 PM,35.6,26.6,70,29.94,10.0,SW,15.0,20.7,N/A,,Clear,220,2012-12-31 18:35:00
1:55 PM,35.6,26.6,70,29.94,10.0,SW,15.0,20.7,N/A,,Clear,220,2012-12-31 18:55:00
2:16 PM,35.6,26.6,70,29.94,10.0,SW,12.7,-,N/A,,Clear,230,2012-12-31 19:16:00
2:31 PM,35.6,26.6,70,29.93,10.0,SW,15.0,-,N/A,,Clear,220,2012-12-31 19:31:00
2:51 PM,35.6,26.6,70,29.93,10.0,SW,13.8,18.4,N/A,,Clear,220,2012-12-31 19:51:00
3:11 PM,35.6,26.6,70,29.94,10.0,SW,12.7,-,N/A,,Clear,230,2012-12-31 20:11:00
3:31 PM,35.6,26.6,70,29.95,10.0,SW,13.8,-,N/A,,Scattered Clouds,230,2012-12-31 20:31:00
3:51 PM,35.6,28.4,75,29.95,10.0,WSW,12.7,21.9,N/A,,Mostly Cloudy,240,2012-12-31 20:51:00
4:11 PM,35.6,28.4,75,29.96,10.0,SW,12.7,19.6,N/A,,Overcast,220,2012-12-31 21:11:00
4:31 PM,33.8,28.4,81,29.95,10.0,SW,13.8,19.6,N/A,,Overcast,230,2012-12-31 21:31:00
4:51 PM,33.8,30.2,87,29.94,10.0,SW,10.4,-,N/A,,Overcast,230,2012-12-31 21:51:00
5:12 PM,33.8,30.2,87,29.95,10.0,WSW,15.0,-,N/A,,Overcast,240,2012-12-31 22:12:00
5:32 PM,33.8,30.2,87,29.94,10.0,SW,15.0,-,N/A,,Overcast,230,2012-12-31 22:32:00
6:12 PM,33.8,30.2,87,29.95,5.0,WSW,15.0,21.9,N/A,Snow,Light Snow,240,2012-12-31 23:12:00
6:32 PM,33.8,30.2,87,29.96,7.0,SW,16.1,20.7,N/A,,Overcast,230,2012-12-31 23:32:00
6:57 PM,33.8,30.2,87,29.96,7.0,WSW,13.8,20.7,N/A,,Overcast,240,2012-12-31 23:57:00
7:32 PM,33.8,30.2,87,29.96,10.0,SW,12.7,-,N/A,,Overcast,230,2013-01-01 00:32:00
7:52 PM,33.8,30.2,87,29.97,10.0,WSW,11.5,-,N/A,,Overcast,240,2013-01-01 00:52:00
8:13 PM,33.8,30.2,87,29.97,10.0,WSW,12.7,-,N/A,,Overcast,240,2013-01-01 01:13:00
8:33 PM,33.8,30.2,87,29.97,10.0,WSW,11.5,-,N/A,,Overcast,240,2013-01-01 01:33:00
9:13 PM,33.8,30.2,87,29.98,10.0,WSW,12.7,-,N/A,,Overcast,240,2013-01-01 02:13:00
9:33 PM,33.8,30.2,87,29.98,10.0,WSW,11.5,-,N/A,,Overcast,250,2013-01-01 02:33:00
9:53 PM,33.8,30.2,87,29.99,10.0,NW,9.2,-,N/A,,Overcast,310,2013-01-01 02:53:00
10:13 PM,33.8,30.2,87,29.98,7.0,NW,6.9,-,N/A,,Overcast,320,2013-01-01 03:13:00
10:33 PM,33.8,28.4,81,29.98,7.0,NW,9.2,-,N/A,,Overcast,310,2013-01-01 03:33:00
10:53 PM,33.8,26.6,75,29.99,7.0,NW,8.1,-,N/A,,Overcast,310,2013-01-01 03:53:00
11:13 PM,32.0,26.6,80,30.01,10.0,NW,8.1,-,N/A,,Overcast,310,2013-01-01 04:13:00
11:34 PM,30.2,24.8,80,30.00,10.0,NW,9.2,-,N/A,,Mostly Cloudy,310,2013-01-01 04:34:00
11:54 PM,30.2,23.0,75,30.00,10.0,NW,8.1,-,N/A,,Scattered Clouds,310,2013-01-01 04:54:00